Palito Blanco, Texas
Current Conditions -  °F | °C
As of 6:17 AM on Sunday 23 Nov 2014 (Local Time) from KALI Reporting Station
Haze Haze  
Wind Chill: 57°   Ceiling: 200
Heat Index: 57°   Visibility: 2mi
Dew Point: 56°   Wind: 8mph
Humidity: 96%   Direction: 230°SW
Pressure: 29.74"   Gusts: NA
Location:  27.6821°N, 98.1034°W
Report Text: KALI 231217Z AUTO 23007KT 2SM BR BKN002 14/13 A2974 RMK AO2 T01390133
Loading
Personal Weather Stations






























Interactive Weather Map New forecast layout! Learn more

10-Day Weather Forecast

Advertisements
Track Severe Weather on mobile